createdAt,value
2019-04-06T00:00:04.217Z,1001.04
2019-04-06T00:01:04.224Z,1001.03
2019-04-06T00:02:04.234Z,1001.03
2019-04-06T00:03:04.245Z,1001.03
2019-04-06T00:04:04.256Z,1001.01
2019-04-06T00:05:04.430Z,1001.01
2019-04-06T00:09:05.216Z,1000.96
2019-04-06T00:10:04.347Z,1001.00
2019-04-06T00:11:04.352Z,1000.96
2019-04-06T00:12:04.422Z,1000.99
2019-04-06T00:13:04.390Z,1000.96
2019-04-06T00:14:04.391Z,1000.91
2019-04-06T00:15:04.394Z,1000.91
2019-04-06T00:16:04.411Z,1000.93
2019-04-06T00:17:04.424Z,1000.89
2019-04-06T00:18:04.432Z,1000.89
2019-04-06T00:19:04.464Z,1000.89
2019-04-06T00:20:04.818Z,1000.85
2019-04-06T00:21:04.479Z,1000.84
2019-04-06T00:23:04.494Z,1000.81
2019-04-06T00:24:04.512Z,1000.83
2019-04-06T00:25:04.523Z,1000.83
2019-04-06T00:26:04.530Z,1000.83
2019-04-06T00:27:04.542Z,1000.81
2019-04-06T00:28:04.560Z,1000.79
2019-04-06T00:29:04.564Z,1000.79
2019-04-06T00:30:04.578Z,1000.76
2019-04-06T00:31:04.592Z,1000.72
2019-04-06T00:32:04.625Z,1000.71
2019-04-06T00:33:04.620Z,1000.68
2019-04-06T00:34:04.656Z,1000.70
2019-04-06T00:35:04.844Z,1000.70
2019-04-06T00:36:05.105Z,1000.74
2019-04-06T00:37:04.722Z,1000.76
2019-04-06T00:38:05.637Z,1000.79
2019-04-06T00:39:05.326Z,1000.78
2019-04-06T00:40:05.173Z,1000.76
2019-04-06T00:41:04.763Z,1000.77
2019-04-06T00:42:04.752Z,1000.72
2019-04-06T00:43:04.795Z,1000.72
2019-04-06T00:44:04.811Z,1000.69
2019-04-06T00:45:04.766Z,1000.65
2019-04-06T00:46:04.780Z,1000.68
2019-04-06T00:47:04.793Z,1000.71
2019-04-06T00:48:04.807Z,1000.71
2019-04-06T00:49:04.813Z,1000.73
2019-04-06T00:50:04.829Z,1000.68
2019-04-06T00:51:04.839Z,1000.71
2019-04-06T00:52:04.862Z,1000.66
2019-04-06T00:53:05.092Z,1000.68
2019-04-06T00:55:05.495Z,1000.60
2019-04-06T00:56:05.560Z,1000.63
2019-04-06T00:57:04.951Z,1000.61
2019-04-06T00:58:04.963Z,1000.58
2019-04-06T00:59:05.047Z,1000.64
2019-04-06T01:00:04.952Z,1000.59
2019-04-06T01:01:04.966Z,1000.60
2019-04-06T01:02:04.987Z,1000.61
2019-04-06T01:03:05.011Z,1000.54
2019-04-06T01:04:05.000Z,1000.54
2019-04-06T01:05:05.013Z,1000.50
2019-04-06T01:06:05.025Z,1000.55
2019-04-06T01:07:05.744Z,1000.54
2019-04-06T01:08:05.059Z,1000.56
2019-04-06T01:09:05.082Z,1000.55
2019-04-06T01:10:05.833Z,1000.56
2019-04-06T01:11:05.441Z,1000.53
2019-04-06T01:12:05.451Z,1000.55
2019-04-06T01:13:05.720Z,1000.53
2019-04-06T01:14:05.196Z,1000.57
2019-04-06T01:15:05.198Z,1000.58
2019-04-06T01:16:05.227Z,1000.56
2019-04-06T01:17:05.167Z,1000.56
2019-04-06T01:18:05.176Z,1000.53
2019-04-06T01:19:05.227Z,1000.52
2019-04-06T01:20:05.209Z,1000.52
2019-04-06T01:21:05.215Z,1000.51
2019-04-06T01:22:05.233Z,1000.47
2019-04-06T01:23:05.235Z,1000.53
2019-04-06T01:24:05.262Z,1000.54
2019-04-06T01:25:05.268Z,1000.57
2019-04-06T01:27:06.072Z,1000.59
2019-04-06T01:28:05.323Z,1000.54
2019-04-06T01:29:05.313Z,1000.59
2019-04-06T01:30:06.258Z,1000.60
2019-04-06T01:31:06.501Z,1000.64
2019-04-06T01:32:05.352Z,1000.64
2019-04-06T01:33:05.364Z,1000.57
2019-04-06T01:34:05.379Z,1000.61
2019-04-06T01:35:05.390Z,1000.59
2019-04-06T01:36:05.401Z,1000.64
2019-04-06T01:37:05.466Z,1000.59
2019-04-06T01:39:05.750Z,1000.56
2019-04-06T01:40:05.695Z,1000.55
2019-04-06T01:41:06.315Z,1000.56
2019-04-06T01:46:05.574Z,1000.54
2019-04-06T01:47:05.547Z,1000.55
2019-04-06T01:48:05.590Z,1000.54
2019-04-06T01:49:05.564Z,1000.57
2019-04-06T01:50:05.572Z,1000.57
2019-04-06T01:51:05.587Z,1000.57
2019-04-06T01:52:05.602Z,1000.56
2019-04-06T01:53:05.613Z,1000.56
2019-04-06T01:54:05.631Z,1000.57
2019-04-06T01:55:05.651Z,1000.55
2019-04-06T01:56:05.663Z,1000.54
2019-04-06T01:57:05.662Z,1000.58
2019-04-06T02:01:06.330Z,1000.58
2019-04-06T02:02:06.423Z,1000.56
2019-04-06T02:03:05.804Z,1000.57
2019-04-06T02:04:06.545Z,1000.57
2019-04-06T02:05:05.765Z,1000.55
2019-04-06T02:06:05.772Z,1000.57
2019-04-06T02:07:05.795Z,1000.57
2019-04-06T02:08:05.796Z,1000.57
2019-04-06T02:09:05.927Z,1000.57
2019-04-06T02:10:05.831Z,1000.52
2019-04-06T02:12:05.894Z,1000.51
2019-04-06T02:13:05.872Z,1000.51
2019-04-06T02:16:06.941Z,1000.53
2019-04-06T02:17:06.867Z,1000.54
2019-04-06T02:18:06.371Z,1000.55
2019-04-06T02:19:06.090Z,1000.55
2019-04-06T02:20:06.008Z,1000.55
2019-04-06T02:21:05.956Z,1000.57
2019-04-06T02:22:05.966Z,1000.54
2019-04-06T02:23:06.029Z,1000.55
2019-04-06T02:24:05.991Z,1000.55
2019-04-06T02:25:06.006Z,1000.57
2019-04-06T02:26:06.018Z,1000.56
2019-04-06T02:27:06.131Z,1000.58
2019-04-06T02:28:06.044Z,1000.54
2019-04-06T02:29:06.054Z,1000.54
2019-04-06T02:30:06.081Z,1000.58
2019-04-06T02:31:06.078Z,1000.54
2019-04-06T02:32:06.126Z,1000.51
2019-04-06T02:34:06.124Z,1000.54
2019-04-06T02:35:06.143Z,1000.49
2019-04-06T02:36:06.219Z,1000.52
2019-04-06T02:37:06.152Z,1000.54
2019-04-06T02:38:06.171Z,1000.58
2019-04-06T02:39:06.290Z,1000.51
2019-04-06T02:40:08.222Z,1000.47
2019-04-06T02:41:06.206Z,1000.52
2019-04-06T02:42:06.227Z,1000.54
2019-04-06T02:43:06.231Z,1000.52
2019-04-06T02:44:06.244Z,1000.48
2019-04-06T02:46:06.333Z,1000.47
2019-04-06T02:47:06.400Z,1000.47
2019-04-06T02:48:06.298Z,1000.47
2019-04-06T02:49:06.312Z,1000.50
2019-04-06T02:50:06.580Z,1000.49
2019-04-06T02:51:06.372Z,1000.48
2019-04-06T02:52:06.391Z,1000.50
2019-04-06T02:53:06.360Z,1000.48
2019-04-06T02:54:06.453Z,1000.47
2019-04-06T02:55:06.375Z,1000.45
2019-04-06T02:56:06.389Z,1000.46
2019-04-06T02:57:06.432Z,1000.44
2019-04-06T02:58:06.416Z,1000.45
2019-04-06T02:59:06.439Z,1000.41
2019-04-06T03:00:06.463Z,1000.48
2019-04-06T03:01:06.457Z,1000.45
2019-04-06T03:02:06.465Z,1000.42
2019-04-06T03:03:06.604Z,1000.42
2019-04-06T03:04:06.541Z,1000.42
2019-04-06T03:05:06.592Z,1000.43
2019-04-06T03:06:06.514Z,1000.41
2019-04-06T03:07:06.612Z,1000.44
2019-04-06T03:08:06.549Z,1000.43
2019-04-06T03:09:06.823Z,1000.41
2019-04-06T03:10:06.783Z,1000.38
2019-04-06T03:11:06.573Z,1000.40
2019-04-06T03:12:06.597Z,1000.42
2019-04-06T03:13:06.602Z,1000.43
2019-04-06T03:14:06.618Z,1000.40
2019-04-06T03:15:06.732Z,1000.37
2019-04-06T03:16:06.639Z,1000.40
2019-04-06T03:17:06.711Z,1000.38
2019-04-06T03:18:07.119Z,1000.37
2019-04-06T03:19:06.699Z,1000.37
2019-04-06T03:20:06.893Z,1000.33
2019-04-06T03:22:06.720Z,1000.38
2019-04-06T03:23:06.737Z,1000.41
2019-04-06T03:24:06.769Z,1000.47
2019-04-06T03:25:06.773Z,1000.46
2019-04-06T03:26:06.785Z,1000.50
2019-04-06T03:27:06.798Z,1000.44
2019-04-06T03:28:06.793Z,1000.47
2019-04-06T03:29:06.798Z,1000.50
2019-04-06T03:30:06.952Z,1000.50
2019-04-06T03:31:06.831Z,1000.48
2019-04-06T03:32:07.186Z,1000.42
2019-04-06T03:33:06.895Z,1000.41
2019-04-06T03:34:06.866Z,1000.42
2019-04-06T03:35:06.888Z,1000.40
2019-04-06T03:36:06.891Z,1000.41
2019-04-06T03:37:06.916Z,1000.40
2019-04-06T03:38:06.909Z,1000.41
2019-04-06T03:39:06.925Z,1000.40
2019-04-06T03:40:07.337Z,1000.43
2019-04-06T03:43:07.753Z,1000.47
2019-04-06T03:44:06.984Z,1000.43
2019-04-06T03:45:07.001Z,1000.45
2019-04-06T03:46:07.105Z,1000.45
2019-04-06T03:47:07.020Z,1000.42
2019-04-06T03:48:07.031Z,1000.42
2019-04-06T03:49:07.119Z,1000.42
2019-04-06T03:50:07.048Z,1000.45
2019-04-06T03:51:07.164Z,1000.40
2019-04-06T03:53:07.441Z,1000.44
2019-04-06T03:54:07.655Z,1000.46
2019-04-06T03:55:07.338Z,1000.48
2019-04-06T03:57:14.458Z,1000.48
2019-04-06T03:58:07.378Z,1000.47
2019-04-06T03:59:07.177Z,1000.49
2019-04-06T04:00:07.219Z,1000.44
2019-04-06T04:01:07.186Z,1000.43
2019-04-06T04:02:07.316Z,1000.47
2019-04-06T04:03:07.332Z,1000.46
2019-04-06T04:04:07.276Z,1000.43
2019-04-06T04:05:07.359Z,1000.46
2019-04-06T04:06:07.258Z,1000.47
2019-04-06T04:07:07.268Z,1000.49
2019-04-06T04:08:07.306Z,1000.46
2019-04-06T04:09:07.438Z,1000.49
2019-04-06T04:12:07.827Z,1000.48
2019-04-06T04:14:08.381Z,1000.50
2019-04-06T04:15:07.485Z,1000.44
2019-04-06T04:16:07.413Z,1000.47
2019-04-06T04:17:07.386Z,1000.47
2019-04-06T04:18:07.404Z,1000.46
2019-04-06T04:19:07.428Z,1000.49
2019-04-06T04:20:07.694Z,1000.48
2019-04-06T04:21:07.446Z,1000.46
2019-04-06T04:24:08.416Z,1000.47
2019-04-06T04:25:07.582Z,1000.43
2019-04-06T04:26:07.646Z,1000.49
2019-04-06T04:27:07.515Z,1000.51
2019-04-06T04:28:07.593Z,1000.52
2019-04-06T04:29:07.630Z,1000.57
2019-04-06T04:30:07.755Z,1000.52
2019-04-06T04:31:07.559Z,1000.54
2019-04-06T04:32:07.575Z,1000.50
2019-04-06T04:33:07.610Z,1000.49
2019-04-06T04:34:07.615Z,1000.55
2019-04-06T04:35:07.825Z,1000.49
2019-04-06T04:36:07.662Z,1000.46
2019-04-06T04:37:07.640Z,1000.48
2019-04-06T04:38:07.655Z,1000.48
2019-04-06T04:39:07.663Z,1000.49
2019-04-06T04:40:07.780Z,1000.52
2019-04-06T04:41:07.690Z,1000.54
2019-04-06T04:42:07.717Z,1000.55
2019-04-06T04:43:07.870Z,1000.54
2019-04-06T04:44:07.729Z,1000.52
2019-04-06T04:45:07.747Z,1000.51
2019-04-06T04:47:07.805Z,1000.47
2019-04-06T04:48:07.831Z,1000.47
2019-04-06T04:49:07.795Z,1000.46
2019-04-06T04:50:07.937Z,1000.49
2019-04-06T04:51:07.814Z,1000.49
2019-04-06T04:52:07.830Z,1000.44
2019-04-06T04:53:07.848Z,1000.43
2019-04-06T04:54:07.848Z,1000.46
2019-04-06T04:55:07.965Z,1000.51
2019-04-06T04:56:07.883Z,1000.47
2019-04-06T04:57:08.094Z,1000.51
2019-04-06T04:58:08.010Z,1000.52
2019-04-06T04:59:07.919Z,1000.50
2019-04-06T05:00:08.024Z,1000.47
2019-04-06T05:01:07.937Z,1000.42
2019-04-06T05:02:07.988Z,1000.44
2019-04-06T05:04:07.988Z,1000.45
2019-04-06T05:05:09.535Z,1000.40
2019-04-06T05:07:08.213Z,1000.43
2019-04-06T05:08:08.606Z,1000.40
2019-04-06T05:09:08.113Z,1000.45
2019-04-06T05:10:08.052Z,1000.53
2019-04-06T05:11:08.053Z,1000.55
2019-04-06T05:12:08.077Z,1000.59
2019-04-06T05:13:08.081Z,1000.62
2019-04-06T05:14:08.091Z,1000.63
2019-04-06T05:15:08.605Z,1000.63
2019-04-06T05:16:08.540Z,1000.69
2019-04-06T05:17:08.740Z,1000.65
2019-04-06T05:18:08.140Z,1000.67
2019-04-06T05:19:09.108Z,1000.67
2019-04-06T05:20:08.191Z,1000.66
2019-04-06T05:21:08.180Z,1000.64
2019-04-06T05:22:08.261Z,1000.64
2019-04-06T05:23:08.217Z,1000.64
2019-04-06T05:24:08.216Z,1000.66
2019-04-06T05:25:08.286Z,1000.61
2019-04-06T05:26:08.244Z,1000.61
2019-04-06T05:27:08.294Z,1000.58
2019-04-06T05:28:08.281Z,1000.62
2019-04-06T05:29:08.573Z,1000.60
2019-04-06T05:30:08.296Z,1000.61
2019-04-06T05:31:09.578Z,1000.54
2019-04-06T05:32:09.713Z,1000.57
2019-04-06T05:33:08.361Z,1000.60
2019-04-06T05:34:08.353Z,1000.58
2019-04-06T05:35:08.446Z,1000.60
2019-04-06T05:36:08.540Z,1000.60
2019-04-06T05:37:08.397Z,1000.63
2019-04-06T05:38:08.397Z,1000.60
2019-04-06T05:39:08.582Z,1000.58
2019-04-06T05:40:08.765Z,1000.58
2019-04-06T05:41:08.663Z,1000.64
2019-04-06T05:42:08.617Z,1000.61
2019-04-06T05:43:08.557Z,1000.63
2019-04-06T05:44:08.466Z,1000.64
2019-04-06T05:45:09.034Z,1000.60
2019-04-06T05:46:08.524Z,1000.72
2019-04-06T05:47:08.695Z,1000.71
2019-04-06T05:48:08.897Z,1000.70
2019-04-06T05:49:09.035Z,1000.71
2019-04-06T05:51:08.636Z,1000.71
2019-04-06T05:52:12.034Z,1000.73
2019-04-06T05:53:08.580Z,1000.72
2019-04-06T05:54:08.775Z,1000.75
2019-04-06T05:55:08.610Z,1000.73
2019-04-06T05:56:08.622Z,1000.74
2019-04-06T05:57:08.626Z,1000.72
2019-04-06T05:58:10.610Z,1000.72
2019-04-06T05:59:10.256Z,1000.74
2019-04-06T06:00:10.166Z,1000.73
2019-04-06T06:01:10.961Z,1000.76
2019-04-06T06:03:10.788Z,1000.71
2019-04-06T06:04:10.647Z,1000.71
2019-04-06T06:05:10.505Z,1000.69
2019-04-06T06:06:09.286Z,1000.70
2019-04-06T06:07:08.774Z,1000.65
2019-04-06T06:08:08.766Z,1000.69
2019-04-06T06:09:08.784Z,1000.69
2019-04-06T06:10:08.803Z,1000.67
2019-04-06T06:11:08.808Z,1000.66
2019-04-06T06:12:08.954Z,1000.64
2019-04-06T06:13:09.145Z,1000.70
2019-04-06T06:14:08.850Z,1000.69
2019-04-06T06:15:08.857Z,1000.71
2019-04-06T06:16:08.874Z,1000.73
2019-04-06T06:17:09.034Z,1000.73
2019-04-06T06:19:09.484Z,1000.71
2019-04-06T06:20:09.057Z,1000.73
2019-04-06T06:21:10.076Z,1000.74
2019-04-06T06:22:08.944Z,1000.71
2019-04-06T06:23:09.138Z,1000.71
2019-04-06T06:24:08.992Z,1000.71
2019-04-06T06:25:08.985Z,1000.69
2019-04-06T06:26:08.997Z,1000.71
2019-04-06T06:27:09.009Z,1000.74
2019-04-06T06:28:14.205Z,1000.75
2019-04-06T06:29:09.039Z,1000.75
2019-04-06T06:30:09.054Z,1000.73
2019-04-06T06:32:09.265Z,1000.64
2019-04-06T06:33:09.087Z,1000.69
2019-04-06T06:34:09.151Z,1000.72
2019-04-06T06:35:09.113Z,1000.71
2019-04-06T06:36:09.122Z,1000.72
2019-04-06T06:37:09.200Z,1000.67
2019-04-06T06:38:09.156Z,1000.70
2019-04-06T06:39:09.791Z,1000.69
2019-04-06T06:40:09.478Z,1000.71
2019-04-06T06:41:09.891Z,1000.74
2019-04-06T06:42:09.204Z,1000.74
2019-04-06T06:43:09.236Z,1000.80
2019-04-06T06:44:09.228Z,1000.78
2019-04-06T06:45:09.890Z,1000.72
2019-04-06T06:46:10.102Z,1000.73
2019-04-06T06:47:09.267Z,1000.76
2019-04-06T06:48:09.278Z,1000.78
2019-04-06T06:49:09.291Z,1000.80
2019-04-06T06:50:09.404Z,1000.79
2019-04-06T06:51:09.326Z,1000.85
2019-04-06T06:52:09.328Z,1000.88
2019-04-06T06:53:09.342Z,1000.88
2019-04-06T06:54:09.355Z,1000.89
2019-04-06T06:55:09.368Z,1000.89
2019-04-06T06:56:09.384Z,1000.90
2019-04-06T06:57:09.402Z,1000.90
2019-04-06T06:58:09.410Z,1000.90
2019-04-06T06:59:09.642Z,1000.90
2019-04-06T07:00:10.124Z,1000.90
2019-04-06T07:01:10.559Z,1000.90
2019-04-06T07:02:09.460Z,1000.90
2019-04-06T07:03:09.728Z,1000.93
2019-04-06T07:04:09.496Z,1000.90
2019-04-06T07:05:09.533Z,1000.92
2019-04-06T07:06:09.610Z,1000.92
2019-04-06T07:07:09.529Z,1000.94
2019-04-06T07:08:09.665Z,1000.95
2019-04-06T07:09:09.669Z,1000.91
2019-04-06T07:10:09.726Z,1000.91
2019-04-06T07:11:09.933Z,1000.88
2019-04-06T07:12:09.693Z,1000.87
2019-04-06T07:13:09.613Z,1000.91
2019-04-06T07:14:09.666Z,1000.89
2019-04-06T07:15:09.643Z,1000.90
2019-04-06T07:16:09.647Z,1000.90
2019-04-06T07:17:09.680Z,1000.94
2019-04-06T07:18:09.711Z,1000.91
2019-04-06T07:20:09.880Z,1000.94
2019-04-06T07:21:09.713Z,1000.97
2019-04-06T07:22:10.656Z,1001.01
2019-04-06T07:23:09.907Z,1001.02
2019-04-06T07:24:09.753Z,1001.07
2019-04-06T07:25:10.245Z,1001.05
2019-04-06T07:26:09.782Z,1001.05
2019-04-06T07:27:09.813Z,1001.07
2019-04-06T07:28:09.973Z,1001.07
2019-04-06T07:29:09.816Z,1001.07
2019-04-06T07:30:10.119Z,1001.06
2019-04-06T07:32:10.733Z,1001.04
2019-04-06T07:34:10.653Z,1001.06
2019-04-06T07:36:09.924Z,1001.06
2019-04-06T07:37:09.921Z,1001.06
2019-04-06T07:38:10.006Z,1001.03
2019-04-06T07:39:09.952Z,1001.04
2019-04-06T07:40:10.175Z,1001.06
2019-04-06T07:41:09.979Z,1001.08
2019-04-06T07:42:10.192Z,1001.09
2019-04-06T07:43:10.023Z,1001.07
2019-04-06T07:44:10.016Z,1001.06
2019-04-06T07:45:10.044Z,1001.11
2019-04-06T07:46:10.040Z,1001.09
2019-04-06T07:47:10.062Z,1001.09
2019-04-06T07:48:10.077Z,1001.07
2019-04-06T07:49:10.604Z,1001.08
2019-04-06T07:50:10.245Z,1001.07
2019-04-06T07:51:10.217Z,1001.04
2019-04-06T07:52:10.305Z,1001.10
2019-04-06T07:54:10.977Z,1001.12
2019-04-06T07:55:10.334Z,1001.11
2019-04-06T07:56:11.387Z,1001.09
2019-04-06T07:57:10.192Z,1001.14
2019-04-06T07:58:10.213Z,1001.09
2019-04-06T07:59:10.456Z,1001.15
2019-04-06T08:00:10.258Z,1001.14
2019-04-06T08:02:10.273Z,1001.11
2019-04-06T08:03:10.357Z,1001.14
2019-04-06T08:04:10.348Z,1001.15
2019-04-06T08:05:10.311Z,1001.15
2019-04-06T08:06:10.405Z,1001.15
2019-04-06T08:07:10.327Z,1001.12
2019-04-06T08:09:10.362Z,1001.15
2019-04-06T08:10:10.689Z,1001.13
2019-04-06T08:11:10.389Z,1001.10
2019-04-06T08:12:10.392Z,1001.10
2019-04-06T08:13:10.408Z,1001.15
2019-04-06T08:14:10.528Z,1001.13
2019-04-06T08:15:10.462Z,1001.12
2019-04-06T08:16:10.778Z,1001.16
2019-04-06T08:18:10.473Z,1001.13
2019-04-06T08:19:10.485Z,1001.10
2019-04-06T08:20:10.502Z,1001.11
2019-04-06T08:21:10.545Z,1001.13
2019-04-06T08:22:10.537Z,1001.12
2019-04-06T08:25:10.568Z,1001.08
2019-04-06T08:26:10.789Z,1001.11
2019-04-06T08:27:10.595Z,1001.13
2019-04-06T08:28:10.614Z,1001.15
2019-04-06T08:29:12.153Z,1001.14
2019-04-06T08:30:10.665Z,1001.15
2019-04-06T08:31:10.744Z,1001.09
2019-04-06T08:32:10.753Z,1001.09
2019-04-06T08:34:13.448Z,1001.14
2019-04-06T08:35:11.678Z,1001.09
2019-04-06T08:37:10.789Z,1001.12
2019-04-06T08:39:11.738Z,1001.06
2019-04-06T08:40:11.346Z,1001.06
2019-04-06T08:41:11.060Z,1001.07
2019-04-06T08:42:10.993Z,1001.07
2019-04-06T08:43:10.984Z,1001.07
2019-04-06T08:44:11.204Z,1001.06
2019-04-06T08:45:13.610Z,1001.05
2019-04-06T08:46:11.038Z,1001.06
2019-04-06T08:47:11.311Z,1001.10
2019-04-06T08:48:11.093Z,1001.07
2019-04-06T08:49:10.894Z,1001.08
2019-04-06T08:50:10.906Z,1001.06
2019-04-06T08:51:11.211Z,1001.06
2019-04-06T08:52:11.834Z,1001.07
2019-04-06T08:53:10.958Z,1001.05
2019-04-06T08:54:10.995Z,1001.06
2019-04-06T08:55:10.979Z,1001.08
2019-04-06T08:56:11.159Z,1001.04
2019-04-06T08:57:11.156Z,1001.02
2019-04-06T08:58:11.020Z,1001.10
2019-04-06T08:59:13.311Z,1001.03
2019-04-06T09:00:11.755Z,1001.06
2019-04-06T09:02:11.999Z,1001.03
2019-04-06T09:03:11.096Z,1001.02
2019-04-06T09:04:11.102Z,1001.02
2019-04-06T09:05:11.119Z,1001.01
2019-04-06T09:06:11.128Z,1001.04
2019-04-06T09:07:11.159Z,1001.06
2019-04-06T09:09:11.183Z,1001.08
2019-04-06T09:10:11.340Z,1001.05
2019-04-06T09:11:11.439Z,1001.07
2019-04-06T09:12:12.106Z,1001.04
2019-04-06T09:13:11.242Z,1001.01
2019-04-06T09:14:11.249Z,1001.01
2019-04-06T09:15:12.064Z,1001.02
2019-04-06T09:17:11.286Z,1001.01
2019-04-06T09:18:11.357Z,1001.03
2019-04-06T09:19:12.037Z,1001.02
2019-04-06T09:20:11.331Z,1001.00
2019-04-06T09:21:11.588Z,1001.01
2019-04-06T09:22:11.600Z,1001.00
2019-04-06T09:23:11.369Z,1000.96
2019-04-06T09:24:11.384Z,1000.92
2019-04-06T09:25:11.401Z,1000.93
2019-04-06T09:26:11.424Z,1000.96
2019-04-06T09:27:11.433Z,1000.93
2019-04-06T09:28:11.497Z,1000.89
2019-04-06T09:29:22.571Z,1000.87
2019-04-06T09:30:11.467Z,1000.86
2019-04-06T09:31:11.502Z,1000.87
2019-04-06T09:32:11.505Z,1000.91
2019-04-06T09:34:11.520Z,1000.87
2019-04-06T09:35:11.559Z,1000.89
2019-04-06T09:36:11.603Z,1000.91
2019-04-06T09:37:11.561Z,1000.94
2019-04-06T09:38:11.577Z,1000.94
2019-04-06T09:39:11.725Z,1000.93
2019-04-06T09:40:11.607Z,1000.95
2019-04-06T09:41:11.693Z,1000.87
2019-04-06T09:42:11.750Z,1000.90
2019-04-06T09:43:11.946Z,1000.87
2019-04-06T09:44:11.692Z,1000.84
2019-04-06T09:45:11.698Z,1000.85
2019-04-06T09:46:11.701Z,1000.82
2019-04-06T09:47:11.740Z,1000.81
2019-04-06T09:48:11.724Z,1000.84
2019-04-06T09:49:11.745Z,1000.81
2019-04-06T09:50:11.756Z,1000.79
2019-04-06T09:51:11.766Z,1000.79
2019-04-06T09:52:11.779Z,1000.76
2019-04-06T09:53:12.021Z,1000.78
2019-04-06T09:54:11.810Z,1000.76
2019-04-06T09:55:11.993Z,1000.76
2019-04-06T09:56:11.919Z,1000.77
2019-04-06T09:57:11.851Z,1000.78
2019-04-06T09:58:11.922Z,1000.76
2019-04-06T09:59:13.129Z,1000.82
2019-04-06T10:01:11.907Z,1000.78
2019-04-06T10:02:11.972Z,1000.77
2019-04-06T10:03:13.108Z,1000.77
2019-04-06T10:04:12.133Z,1000.77
2019-04-06T10:05:12.015Z,1000.72
2019-04-06T10:06:12.512Z,1000.73
2019-04-06T10:07:12.397Z,1000.71
2019-04-06T10:08:12.251Z,1000.72
2019-04-06T10:09:13.097Z,1000.69
2019-04-06T10:10:13.317Z,1000.67
2019-04-06T10:12:12.334Z,1000.68
2019-04-06T10:13:12.199Z,1000.71
2019-04-06T10:14:12.349Z,1000.70
2019-04-06T10:15:12.102Z,1000.72
2019-04-06T10:16:12.121Z,1000.70
2019-04-06T10:19:12.162Z,1000.70
2019-04-06T10:20:12.182Z,1000.70
2019-04-06T10:21:12.263Z,1000.74
2019-04-06T10:22:12.200Z,1000.74
2019-04-06T10:23:12.450Z,1000.74
2019-04-06T10:24:12.265Z,1000.79
2019-04-06T10:25:12.242Z,1000.78
2019-04-06T10:26:12.258Z,1000.79
2019-04-06T10:27:12.279Z,1000.79
2019-04-06T10:28:12.329Z,1000.79
2019-04-06T10:29:12.615Z,1000.78
2019-04-06T10:30:14.948Z,1000.80
2019-04-06T10:31:12.558Z,1000.80
2019-04-06T10:32:12.617Z,1000.81
2019-04-06T10:33:12.722Z,1000.82
2019-04-06T10:34:12.505Z,1000.80
2019-04-06T10:35:12.485Z,1000.76
2019-04-06T10:36:12.423Z,1000.73
2019-04-06T10:37:12.770Z,1000.70
2019-04-06T10:39:12.619Z,1000.73
2019-04-06T10:40:12.462Z,1000.73
2019-04-06T10:41:12.473Z,1000.75
2019-04-06T10:42:12.492Z,1000.78
2019-04-06T10:43:12.631Z,1000.79
2019-04-06T10:44:12.861Z,1000.81
2019-04-06T10:45:12.533Z,1000.88
2019-04-06T10:46:12.552Z,1000.87
2019-04-06T10:47:12.580Z,1000.85
2019-04-06T10:50:13.361Z,1000.73
2019-04-06T10:52:13.905Z,1000.79
2019-04-06T10:53:13.381Z,1000.82
2019-04-06T10:54:12.814Z,1000.80
2019-04-06T10:55:12.724Z,1000.82
2019-04-06T10:56:12.698Z,1000.88
2019-04-06T10:57:12.749Z,1000.87
2019-04-06T10:58:12.723Z,1000.90
2019-04-06T10:59:12.747Z,1000.86
2019-04-06T11:00:12.749Z,1000.78
2019-04-06T11:01:12.764Z,1000.79
2019-04-06T11:02:12.790Z,1000.81
2019-04-06T11:03:12.867Z,1000.84
2019-04-06T11:04:12.890Z,1000.79
2019-04-06T11:06:12.839Z,1000.78
2019-04-06T11:08:13.357Z,1000.78
2019-04-06T11:09:12.886Z,1000.70
2019-04-06T11:10:13.000Z,1000.77
2019-04-06T11:11:16.365Z,1000.76
2019-04-06T11:12:13.622Z,1000.75
2019-04-06T11:13:12.957Z,1000.71
2019-04-06T11:14:13.064Z,1000.71
2019-04-06T11:15:12.971Z,1000.73
2019-04-06T11:16:12.988Z,1000.70
2019-04-06T11:17:13.000Z,1000.67
2019-04-06T11:18:13.019Z,1000.71
2019-04-06T11:19:13.385Z,1000.72
2019-04-06T11:20:13.110Z,1000.66
2019-04-06T11:21:13.481Z,1000.72
2019-04-06T11:22:13.082Z,1000.71
2019-04-06T11:23:13.092Z,1000.71
2019-04-06T11:24:13.134Z,1000.69
2019-04-06T11:25:13.137Z,1000.66
2019-04-06T11:26:14.013Z,1000.66
2019-04-06T11:27:13.166Z,1000.73
2019-04-06T11:28:13.178Z,1000.74
2019-04-06T11:29:13.662Z,1000.75
2019-04-06T11:30:14.810Z,1000.79
2019-04-06T11:31:13.271Z,1000.76
2019-04-06T11:33:13.243Z,1000.75
2019-04-06T11:34:13.534Z,1000.71
2019-04-06T11:35:13.283Z,1000.68
2019-04-06T11:36:13.408Z,1000.70
2019-04-06T11:37:13.299Z,1000.70
2019-04-06T11:38:13.318Z,1000.75
2019-04-06T11:39:13.334Z,1000.73
2019-04-06T11:40:13.687Z,1000.73
2019-04-06T11:41:13.362Z,1000.68
2019-04-06T11:42:13.425Z,1000.70
2019-04-06T11:43:13.541Z,1000.71
2019-04-06T11:44:13.414Z,1000.69
2019-04-06T11:45:13.416Z,1000.69
2019-04-06T11:46:13.635Z,1000.74
2019-04-06T11:47:13.739Z,1000.73
2019-04-06T11:48:13.466Z,1000.72
2019-04-06T11:49:13.482Z,1000.71
2019-04-06T11:50:13.494Z,1000.66
2019-04-06T11:51:13.510Z,1000.67
2019-04-06T11:52:13.570Z,1000.67
2019-04-06T11:53:13.560Z,1000.67
2019-04-06T11:54:13.926Z,1000.71
2019-04-06T11:55:13.886Z,1000.67
2019-04-06T11:56:13.668Z,1000.61
2019-04-06T11:58:14.016Z,1000.59
2019-04-06T11:59:13.631Z,1000.62
2019-04-06T12:00:24.494Z,1000.59
2019-04-06T12:02:14.128Z,1000.57
2019-04-06T12:04:13.758Z,1000.65
2019-04-06T12:05:13.875Z,1000.64
2019-04-06T12:06:14.357Z,1000.59
2019-04-06T12:07:13.965Z,1000.62
2019-04-06T12:09:13.928Z,1000.59
2019-04-06T12:10:13.794Z,1000.64
2019-04-06T12:11:14.086Z,1000.65
2019-04-06T12:12:13.958Z,1000.61
2019-04-06T12:13:13.845Z,1000.69
2019-04-06T12:14:14.218Z,1000.63
2019-04-06T12:15:13.919Z,1000.63
2019-04-06T12:16:13.903Z,1000.64
2019-04-06T12:17:13.904Z,1000.64
2019-04-06T12:18:14.295Z,1000.59
2019-04-06T12:19:14.072Z,1000.62
2019-04-06T12:20:14.115Z,1000.65
2019-04-06T12:21:13.993Z,1000.59
2019-04-06T12:22:13.984Z,1000.56
2019-04-06T12:23:14.107Z,1000.59
2019-04-06T12:24:14.052Z,1000.58
2019-04-06T12:25:14.472Z,1000.57
2019-04-06T12:26:14.090Z,1000.54
2019-04-06T12:27:14.182Z,1000.51
2019-04-06T12:28:14.151Z,1000.52
2019-04-06T12:29:16.545Z,1000.53
2019-04-06T12:30:14.827Z,1000.54
2019-04-06T12:31:14.141Z,1000.50
2019-04-06T12:32:14.366Z,1000.54
2019-04-06T12:33:14.156Z,1000.53
2019-04-06T12:34:14.429Z,1000.47
2019-04-06T12:35:14.197Z,1000.49
2019-04-06T12:36:14.219Z,1000.45
2019-04-06T12:38:15.546Z,1000.50
2019-04-06T12:39:15.280Z,1000.44
2019-04-06T12:40:14.596Z,1000.45
2019-04-06T12:41:14.314Z,1000.46
2019-04-06T12:42:14.317Z,1000.42
2019-04-06T12:43:14.558Z,1000.43
2019-04-06T12:44:14.485Z,1000.47
2019-04-06T12:45:14.350Z,1000.46
2019-04-06T12:46:14.433Z,1000.45
2019-04-06T12:47:14.394Z,1000.41
2019-04-06T12:48:14.393Z,1000.44
2019-04-06T12:49:14.424Z,1000.46
2019-04-06T12:50:14.423Z,1000.45
2019-04-06T12:51:14.465Z,1000.48
2019-04-06T12:52:14.822Z,1000.44
2019-04-06T12:53:14.745Z,1000.47
2019-04-06T12:54:14.791Z,1000.46
2019-04-06T12:55:14.524Z,1000.43
2019-04-06T12:56:15.060Z,1000.34
2019-04-06T12:57:14.554Z,1000.37
2019-04-06T12:58:14.580Z,1000.41
2019-04-06T12:59:14.597Z,1000.38
2019-04-06T13:00:14.588Z,1000.40
2019-04-06T13:01:14.947Z,1000.37
2019-04-06T13:02:14.628Z,1000.38
2019-04-06T13:03:14.662Z,1000.37
2019-04-06T13:04:15.508Z,1000.38
2019-04-06T13:05:15.001Z,1000.37
2019-04-06T13:06:14.750Z,1000.36
2019-04-06T13:07:15.154Z,1000.39
2019-04-06T13:08:14.714Z,1000.43
2019-04-06T13:09:14.759Z,1000.42
2019-04-06T13:10:15.284Z,1000.39
2019-04-06T13:11:14.932Z,1000.38
2019-04-06T13:12:15.242Z,1000.40
2019-04-06T13:13:14.814Z,1000.41
2019-04-06T13:14:14.874Z,1000.43